Time;durP1;ratioP1;P1;durP2;ratioP2;P2;SDS_P1;SDS_P2;PMS_P1;PMS_P2;Temp;Humidity;BMP_temperature;BMP_pressure;BME280_temperature;BME280_humidity;BME280_pressure;Samples;Min_cycle;Max_cycle;Signal;HPM_P1;HPM_P2
2022/05/15 00:01:57;;;;;;;2.40;2.20;;;16.50;95.40;;;;;;5035058;28;20233;-71
2022/05/15 00:04:22;;;;;;;2.33;1.87;;;16.60;95.30;;;;;;5034872;28;20467;-71
2022/05/15 00:06:48;;;;;;;2.93;2.20;;;16.60;95.40;;;;;;5035215;28;20402;-72
2022/05/15 00:09:13;;;;;;;3.53;2.20;;;16.50;95.40;;;;;;5035274;28;20552;-71
2022/05/15 00:11:39;;;;;;;3.27;1.97;;;16.50;95.70;;;;;;5035640;28;20177;-71
2022/05/15 00:14:05;;;;;;;3.00;2.67;;;16.50;95.80;;;;;;5034731;28;20172;-71
2022/05/15 00:16:33;;;;;;;2.33;2.13;;;16.50;95.80;;;;;;5034883;28;20607;-71
2022/05/15 00:18:59;;;;;;;3.10;2.47;;;16.40;95.90;;;;;;5033907;28;20265;-71
2022/05/15 00:21:25;;;;;;;5.33;2.00;;;16.40;96.10;;;;;;5033578;28;20996;-70
2022/05/15 00:23:51;;;;;;;2.37;2.17;;;16.40;96.50;;;;;;5034347;28;20460;-70
2022/05/15 00:26:17;;;;;;;2.20;1.93;;;16.20;96.80;;;;;;5047819;28;20451;-71
2022/05/15 00:28:43;;;;;;;3.73;2.50;;;16.10;97.40;;;;;;5054461;28;20963;-72
2022/05/15 00:31:09;;;;;;;3.73;2.20;;;16.10;97.80;;;;;;5054552;28;20617;-71
2022/05/15 00:33:35;;;;;;;2.77;2.30;;;16.20;97.50;;;;;;5054255;28;20630;-71
2022/05/15 00:36:01;;;;;;;2.30;2.00;;;16.10;97.30;;;;;;5054139;28;20438;-72
2022/05/15 00:38:26;;;;;;;5.30;2.27;;;16.10;97.70;;;;;;5054397;28;20771;-72
2022/05/15 00:40:53;;;;;;;7.20;2.50;;;16.00;98.10;;;;;;5053842;28;20456;-71
2022/05/15 00:43:37;;;;;;;2.50;2.20;;;15.90;98.30;;;;;;5053897;28;20629;-71
2022/05/15 00:46:05;;;;;;;4.90;2.53;;;15.80;98.70;;;;;;5054348;28;20431;-73
2022/05/15 00:48:31;;;;;;;3.50;3.10;;;15.70;99.30;;;;;;5054031;28;20884;-73
2022/05/15 00:50:57;;;;;;;2.63;2.37;;;15.70;99.70;;;;;;5054418;28;20409;-73
2022/05/15 00:53:23;;;;;;;3.47;2.50;;;15.60;99.90;;;;;;5054139;28;20174;-73
2022/05/15 00:55:51;;;;;;;3.40;2.30;;;15.60;99.90;;;;;;5053359;28;20426;-73
2022/05/15 00:58:28;;;;;;;4.00;2.80;;;15.60;99.90;;;;;;5053260;28;20264;-73
2022/05/15 01:00:53;;;;;;;4.30;2.50;;;15.60;99.90;;;;;;5053605;28;20469;-73
2022/05/15 01:03:21;;;;;;;3.10;2.67;;;15.60;99.90;;;;;;5053368;28;20407;-72
2022/05/15 01:05:55;;;;;;;3.97;2.60;;;15.60;99.90;;;;;;5053249;28;20213;-73
2022/05/15 01:08:23;;;;;;;3.73;2.60;;;15.60;99.90;;;;;;5053889;28;20415;-72
2022/05/15 01:10:53;;;;;;;3.57;2.53;;;15.60;99.90;;;;;;5053483;28;20496;-70
2022/05/15 01:13:22;;;;;;;4.07;2.70;;;15.60;99.90;;;;;;5053431;28;20764;-73
2022/05/15 01:15:48;;;;;;;3.27;2.30;;;15.40;99.90;;;;;;5035677;28;20443;-72
2022/05/15 01:18:21;;;;;;;3.30;2.93;;;15.30;99.90;;;;;;5035695;28;20908;-73
2022/05/15 01:20:47;;;;;;;2.93;2.37;;;15.30;99.90;;;;;;5035961;28;20226;-73
2022/05/15 01:23:12;;;;;;;3.90;2.83;;;15.30;99.90;;;;;;5052951;28;20446;-73
2022/05/15 01:25:38;;;;;;;3.93;2.70;;;15.30;99.90;;;;;;5035033;28;20426;-73
2022/05/15 01:28:21;;;;;;;3.90;3.03;;;15.20;99.90;;;;;;5052789;28;20167;-73
2022/05/15 01:30:50;;;;;;;5.57;3.10;;;15.20;99.90;;;;;;5052913;28;20163;-73
2022/05/15 01:33:16;;;;;;;5.20;2.30;;;15.30;99.90;;;;;;5052700;28;20495;-73
2022/05/15 01:35:41;;;;;;;2.03;1.83;;;15.40;99.90;;;;;;5053017;28;20486;-73
2022/05/15 01:38:07;;;;;;;2.70;2.47;;;15.40;99.90;;;;;;5053094;28;20263;-74
2022/05/15 01:40:34;;;;;;;2.83;2.47;;;15.40;99.90;;;;;;5052782;28;20195;-73
2022/05/15 01:43:01;;;;;;;3.77;2.43;;;15.40;99.90;;;;;;5052658;28;20790;-73
2022/05/15 01:45:27;;;;;;;2.53;2.17;;;15.40;99.90;;;;;;5052964;28;20431;-73
2022/05/15 01:47:53;;;;;;;2.83;2.17;;;15.40;99.90;;;;;;5053346;28;20430;-72
2022/05/15 01:50:19;;;;;;;3.50;2.90;;;15.40;99.90;;;;;;5053562;28;20444;-73
2022/05/15 01:52:45;;;;;;;2.53;2.33;;;15.30;99.90;;;;;;5052895;28;20612;-73
2022/05/15 01:55:12;;;;;;;3.70;2.83;;;15.30;99.90;;;;;;5053172;28;20192;-73
2022/05/15 01:57:40;;;;;;;2.77;2.33;;;15.20;99.90;;;;;;5052608;28;20412;-73
2022/05/15 02:00:09;;;;;;;2.70;2.37;;;15.10;99.90;;;;;;5053142;28;20415;-72
2022/05/15 02:02:35;;;;;;;2.47;2.27;;;14.90;99.90;;;;;;5052580;28;20498;-73
2022/05/15 02:05:01;;;;;;;4.50;2.53;;;14.90;99.90;;;;;;5053029;28;20482;-73
2022/05/15 02:07:26;;;;;;;5.23;3.07;;;14.90;99.90;;;;;;5053096;28;20420;-73
2022/05/15 02:09:52;;;;;;;2.30;2.10;;;14.90;99.90;;;;;;5052899;28;20185;-72
2022/05/15 02:12:18;;;;;;;2.70;2.20;;;14.80;99.90;;;;;;5052214;28;20252;-73
2022/05/15 02:14:44;;;;;;;2.77;2.57;;;14.70;99.90;;;;;;5052917;28;20192;-72
2022/05/15 02:17:09;;;;;;;2.80;2.60;;;14.70;99.90;;;;;;5051496;28;20269;-71
2022/05/15 02:19:35;;;;;;;2.93;2.27;;;14.80;99.90;;;;;;5052922;28;20171;-73
2022/05/15 02:22:00;;;;;;;2.83;2.50;;;14.80;99.90;;;;;;5052321;28;20250;-73
2022/05/15 02:24:26;;;;;;;4.90;2.73;;;14.80;99.90;;;;;;5052869;28;20562;-73
2022/05/15 02:26:52;;;;;;;4.97;3.13;;;14.80;99.90;;;;;;5052222;28;20254;-73
2022/05/15 02:29:18;;;;;;;4.80;2.73;;;14.60;99.90;;;;;;5053020;28;20259;-73
2022/05/15 02:31:43;;;;;;;2.90;2.30;;;14.60;99.90;;;;;;5052619;28;20239;-73
2022/05/15 02:34:09;;;;;;;3.00;2.43;;;14.60;99.90;;;;;;5052570;28;20163;-73
2022/05/15 02:36:35;;;;;;;3.70;2.70;;;14.70;99.90;;;;;;5052446;28;20210;-73
2022/05/15 02:39:01;;;;;;;3.20;2.37;;;14.60;99.90;;;;;;5052854;28;20175;-73
2022/05/15 02:41:26;;;;;;;2.57;2.37;;;14.50;99.90;;;;;;5051254;28;20202;-72
2022/05/15 02:43:52;;;;;;;3.80;3.10;;;14.50;99.90;;;;;;5054154;28;20203;-73
2022/05/15 02:46:18;;;;;;;4.90;2.93;;;14.50;99.90;;;;;;5056132;28;20247;-73
2022/05/15 02:51:28;;;;;;;2.20;2.00;;;14.40;99.90;;;;;;5050895;28;20511;-73
2022/05/15 02:53:53;;;;;;;2.33;2.13;;;14.30;99.90;;;;;;5039735;28;20461;-73
2022/05/15 02:56:26;;;;;;;4.97;2.80;;;14.30;99.90;;;;;;5042175;28;20181;-73
2022/05/15 02:58:52;;;;;;;3.63;2.50;;;14.30;99.90;;;;;;5056449;28;20163;-73
2022/05/15 03:01:19;;;;;;;2.53;2.30;;;14.20;99.90;;;;;;5056033;28;20448;-73
2022/05/15 03:03:45;;;;;;;2.83;2.50;;;14.20;99.90;;;;;;5038228;28;20205;-73
2022/05/15 03:06:11;;;;;;;2.57;2.20;;;14.30;99.90;;;;;;5056564;28;20444;-73
2022/05/15 03:08:41;;;;;;;3.43;2.20;;;14.30;99.90;;;;;;5056262;28;20890;-74
2022/05/15 03:11:07;;;;;;;3.80;2.17;;;14.30;99.90;;;;;;5056400;28;20161;-73
2022/05/15 03:13:32;;;;;;;3.30;2.53;;;14.10;99.90;;;;;;5055387;28;20408;-73
2022/05/15 03:15:58;;;;;;;4.30;2.43;;;14.10;99.90;;;;;;5055826;28;20271;-73
2022/05/15 03:18:24;;;;;;;3.03;2.33;;;14.10;99.90;;;;;;5055696;28;20265;-73
2022/05/15 03:23:31;;;;;;;3.70;2.40;;;14.20;99.90;;;;;;5033548;28;20209;-73
2022/05/15 03:25:57;;;;;;;3.03;2.73;;;14.30;99.90;;;;;;5035918;28;20491;-72
2022/05/15 03:28:22;;;;;;;3.20;2.20;;;14.30;99.90;;;;;;5043123;28;20180;-73
2022/05/15 03:30:48;;;;;;;3.10;2.50;;;14.30;99.90;;;;;;5055679;28;20196;-73
2022/05/15 03:33:15;;;;;;;2.40;2.20;;;14.40;99.90;;;;;;5053882;28;20225;-73
2022/05/15 03:35:41;;;;;;;4.50;2.70;;;14.40;99.90;;;;;;5055446;28;20632;-73
2022/05/15 03:38:07;;;;;;;2.23;2.03;;;14.30;99.90;;;;;;5055401;28;20417;-74
2022/05/15 03:40:34;;;;;;;3.50;2.60;;;14.40;99.90;;;;;;5053968;28;20453;-74
2022/05/15 03:43:00;;;;;;;7.33;2.33;;;14.30;99.90;;;;;;5055000;28;20521;-73
2022/05/15 03:45:26;;;;;;;3.37;2.20;;;14.20;99.90;;;;;;5037538;28;20671;-73
2022/05/15 03:47:53;;;;;;;2.40;2.20;;;14.10;99.90;;;;;;5055387;28;20165;-74
2022/05/15 03:50:27;;;;;;;3.57;2.30;;;14.00;99.90;;;;;;5055350;28;20770;-73
2022/05/15 03:52:53;;;;;;;3.00;2.70;;;14.00;99.90;;;;;;5036963;28;20429;-72
2022/05/15 03:55:19;;;;;;;4.00;2.50;;;14.00;99.90;;;;;;5054387;28;20405;-73
2022/05/15 03:57:44;;;;;;;2.93;2.60;;;14.00;99.90;;;;;;5054688;28;20467;-72
2022/05/15 04:00:15;;;;;;;3.93;2.60;;;14.00;99.90;;;;;;5054490;28;20410;-73
2022/05/15 04:02:41;;;;;;;3.33;3.00;;;14.00;99.90;;;;;;5054246;28;20678;-72
2022/05/15 04:05:07;;;;;;;2.27;2.07;;;14.00;99.90;;;;;;5054653;28;20411;-73
2022/05/15 04:07:41;;;;;;;3.97;2.80;;;14.10;99.90;;;;;;5054516;28;20488;-73
2022/05/15 04:10:07;;;;;;;3.20;2.67;;;14.10;99.90;;;;;;5036397;28;20448;-73
2022/05/15 04:12:32;;;;;;;4.00;2.80;;;14.20;99.90;;;;;;5054256;28;20478;-73
2022/05/15 04:14:58;;;;;;;3.70;2.70;;;14.20;99.90;;;;;;5054310;28;20907;-73
2022/05/15 04:17:23;;;;;;;3.20;2.73;;;14.10;99.90;;;;;;5053243;28;20651;-74
2022/05/15 04:19:49;;;;;;;5.20;3.43;;;14.10;99.90;;;;;;5054080;28;20592;-73
2022/05/15 04:22:15;;;;;;;3.07;2.60;;;14.10;99.90;;;;;;5053921;28;20201;-73
2022/05/15 04:24:40;;;;;;;3.70;2.97;;;14.20;99.90;;;;;;5036329;28;20254;-73
2022/05/15 04:27:06;;;;;;;4.53;3.13;;;14.30;99.90;;;;;;5054218;28;20589;-73
2022/05/15 04:29:32;;;;;;;4.90;2.87;;;14.20;99.90;;;;;;5054401;28;20566;-73
2022/05/15 04:31:57;;;;;;;2.80;2.57;;;14.20;99.90;;;;;;5028446;28;20202;-73
2022/05/15 04:34:24;;;;;;;6.07;3.00;;;14.20;99.90;;;;;;5014365;28;20178;-73
2022/05/15 04:36:50;;;;;;;6.13;2.97;;;14.30;99.90;;;;;;5014678;28;20598;-73
2022/05/15 04:39:16;;;;;;;2.87;2.67;;;14.30;99.90;;;;;;5014383;28;20492;-73
2022/05/15 04:41:41;;;;;;;4.83;3.90;;;14.40;99.90;;;;;;5014646;28;20278;-73
2022/05/15 04:44:08;;;;;;;4.87;3.90;;;14.30;99.90;;;;;;5014877;28;20161;-74
2022/05/15 04:46:33;;;;;;;6.37;4.37;;;14.30;99.90;;;;;;4996876;28;20578;-73
2022/05/15 04:48:59;;;;;;;4.53;3.60;;;14.30;99.90;;;;;;5040776;28;20462;-73
2022/05/15 04:51:26;;;;;;;5.80;3.53;;;14.40;99.90;;;;;;5053939;28;20259;-73
2022/05/15 04:53:52;;;;;;;6.90;4.00;;;14.50;99.90;;;;;;5052487;28;20398;-73
2022/05/15 04:56:17;;;;;;;4.47;3.80;;;14.50;99.90;;;;;;5053724;28;20488;-73
2022/05/15 04:58:43;;;;;;;5.20;3.80;;;14.60;99.90;;;;;;5035677;28;20169;-73
2022/05/15 05:01:09;;;;;;;4.90;3.47;;;14.60;99.90;;;;;;5053395;28;20227;-73
2022/05/15 05:03:35;;;;;;;3.93;3.27;;;14.60;99.90;;;;;;5053048;28;20168;-73
2022/05/15 05:06:01;;;;;;;3.27;2.87;;;14.60;99.90;;;;;;5053139;28;20242;-72
2022/05/15 05:08:26;;;;;;;3.93;3.53;;;14.70;99.90;;;;;;5054324;28;20420;-74
2022/05/15 05:10:52;;;;;;;3.93;3.53;;;14.70;99.90;;;;;;5051857;28;20402;-74
2022/05/15 05:13:18;;;;;;;4.00;3.27;;;14.80;99.90;;;;;;5053315;28;20280;-73
2022/05/15 05:15:43;;;;;;;3.67;3.07;;;14.90;99.90;;;;;;5053627;28;20168;-73
2022/05/15 05:18:12;;;;;;;3.57;2.70;;;15.00;99.90;;;;;;5035080;28;20172;-73
2022/05/15 05:20:38;;;;;;;6.10;3.00;;;15.10;99.90;;;;;;5053088;28;20198;-73
2022/05/15 05:23:03;;;;;;;5.73;3.47;;;15.20;99.90;;;;;;5037609;28;20459;-74
2022/05/15 05:25:29;;;;;;;4.97;2.80;;;15.30;99.90;;;;;;5024120;28;20299;-73
2022/05/15 05:27:55;;;;;;;3.23;2.87;;;15.40;99.90;;;;;;5023597;28;20614;-74
2022/05/15 05:30:23;;;;;;;6.40;2.93;;;15.40;99.90;;;;;;5023738;28;20780;-73
2022/05/15 05:32:49;;;;;;;3.37;3.03;;;15.60;99.90;;;;;;5023361;28;20207;-73
2022/05/15 05:35:17;;;;;;;4.83;2.93;;;15.70;99.90;;;;;;5023562;28;20417;-74
2022/05/15 05:37:43;;;;;;;5.03;3.50;;;15.80;99.90;;;;;;5023952;28;20421;-72
2022/05/15 05:40:10;;;;;;;4.00;3.47;;;16.00;99.90;;;;;;5023594;28;20432;-74
2022/05/15 05:42:36;;;;;;;3.93;3.20;;;16.10;99.90;;;;;;5023766;28;20232;-73
2022/05/15 05:45:02;;;;;;;4.30;3.90;;;16.10;99.90;;;;;;5004765;28;20476;-74
2022/05/15 05:47:29;;;;;;;5.40;3.97;;;16.30;99.90;;;;;;5023463;28;20513;-73
2022/05/15 05:49:55;;;;;;;5.07;3.40;;;16.40;99.90;;;;;;5005526;28;20945;-73
2022/05/15 05:52:23;;;;;;;7.00;3.67;;;16.50;99.90;;;;;;5023644;28;20953;-72
2022/05/15 05:54:48;;;;;;;3.90;3.57;;;16.70;99.90;;;;;;5006134;28;21531;-73
2022/05/15 05:57:14;;;;;;;4.77;3.67;;;16.80;99.90;;;;;;5006100;28;20428;-72
2022/05/15 05:59:40;;;;;;;5.23;4.20;;;16.90;99.90;;;;;;5005583;28;20185;-74
2022/05/15 06:02:06;;;;;;;4.03;3.30;;;17.00;99.90;;;;;;5023563;28;20685;-72
2022/05/15 06:04:46;;;;;;;4.27;3.87;;;17.20;99.90;;;;;;5023395;28;20183;-73
2022/05/15 06:07:20;;;;;;;7.33;3.87;;;17.30;99.90;;;;;;5023399;28;20397;-71
2022/05/15 06:09:47;;;;;;;5.67;3.33;;;17.40;99.90;;;;;;5023850;28;20413;-73
2022/05/15 06:12:15;;;;;;;4.27;3.73;;;17.50;99.90;;;;;;5021378;28;20450;-73
2022/05/15 06:14:41;;;;;;;5.63;4.33;;;17.50;99.90;;;;;;5023368;28;20413;-74
2022/05/15 06:17:07;;;;;;;7.63;4.90;;;17.60;99.90;;;;;;5023503;28;20420;-74
2022/05/15 06:19:33;;;;;;;5.43;4.47;;;17.70;99.90;;;;;;5026836;28;20260;-74
2022/05/15 06:21:59;;;;;;;4.50;4.10;;;17.80;99.90;;;;;;5026340;28;20477;-73
2022/05/15 06:24:28;;;;;;;4.10;3.70;;;17.90;99.90;;;;;;5027207;28;20186;-73
2022/05/15 06:26:54;;;;;;;5.00;4.50;;;18.00;99.90;;;;;;5027400;28;20182;-73
2022/05/15 06:29:20;;;;;;;5.33;4.80;;;18.00;99.90;;;;;;5009253;28;20418;-73
2022/05/15 06:31:49;;;;;;;6.80;5.20;;;17.60;99.90;;;;;;5026877;28;20487;-72
2022/05/15 06:34:14;;;;;;;5.70;4.57;;;17.30;99.90;;;;;;5026676;28;20421;-73
2022/05/15 06:36:41;;;;;;;6.00;5.40;;;17.50;99.90;;;;;;5027018;28;20406;-72
2022/05/15 06:39:07;;;;;;;6.40;5.20;;;17.70;99.90;;;;;;5026058;28;20737;-72
2022/05/15 06:41:32;;;;;;;4.97;4.43;;;17.40;99.90;;;;;;5026926;28;20465;-72
2022/05/15 06:43:58;;;;;;;5.67;5.17;;;17.10;99.90;;;;;;5027047;28;20278;-73
2022/05/15 06:46:24;;;;;;;5.23;4.83;;;17.00;99.90;;;;;;5008943;28;20178;-72
2022/05/15 06:48:50;;;;;;;5.60;5.00;;;17.30;99.90;;;;;;5008578;28;20679;-73
2022/05/15 06:51:16;;;;;;;4.40;4.00;;;17.20;99.90;;;;;;5026939;28;20414;-73
2022/05/15 06:53:47;;;;;;;5.20;4.67;;;17.20;99.90;;;;;;5026110;28;20418;-73
2022/05/15 06:58:59;;;;;;;5.03;4.27;;;17.20;99.90;;;;;;5027223;28;20443;-73
2022/05/15 07:01:25;;;;;;;4.83;3.83;;;17.40;99.90;;;;;;5026223;28;20978;-72
2022/05/15 07:03:50;;;;;;;5.20;4.70;;;17.40;99.90;;;;;;5026002;28;20426;-73
2022/05/15 07:06:16;;;;;;;4.23;3.80;;;17.60;99.90;;;;;;5008165;28;20187;-74
2022/05/15 07:08:42;;;;;;;5.90;3.87;;;17.60;99.90;;;;;;5026601;28;20426;-73
2022/05/15 07:11:10;;;;;;;4.77;4.37;;;17.70;99.90;;;;;;5025315;28;20258;-73
2022/05/15 07:13:36;;;;;;;3.87;3.47;;;17.60;99.90;;;;;;5026670;28;20655;-72
2022/05/15 07:16:01;;;;;;;4.33;3.93;;;17.70;99.90;;;;;;5026269;28;20922;-73
2022/05/15 07:18:27;;;;;;;7.43;4.10;;;18.00;99.90;;;;;;5026207;28;20418;-72
2022/05/15 07:20:53;;;;;;;4.00;3.40;;;18.40;99.90;;;;;;5026138;28;20195;-73
2022/05/15 07:23:19;;;;;;;5.53;3.50;;;18.40;99.90;;;;;;5026082;28;20322;-72
2022/05/15 07:25:45;;;;;;;4.93;3.53;;;18.20;99.90;;;;;;5007885;28;20194;-73
2022/05/15 07:28:11;;;;;;;4.27;3.83;;;18.20;99.90;;;;;;5006848;28;21006;-72
2022/05/15 07:30:38;;;;;;;4.27;3.33;;;18.20;99.90;;;;;;5025810;28;20505;-75
2022/05/15 07:33:03;;;;;;;4.20;3.80;;;18.40;99.90;;;;;;5025639;28;20207;-72
2022/05/15 07:35:29;;;;;;;6.93;4.60;;;18.70;99.90;;;;;;5007997;28;20421;-72
2022/05/15 07:37:55;;;;;;;5.23;3.90;;;18.90;99.90;;;;;;5008192;28;20236;-72
2022/05/15 07:40:21;;;;;;;3.97;3.67;;;19.30;99.90;;;;;;5025900;28;20294;-73
2022/05/15 07:42:47;;;;;;;5.00;3.10;;;19.40;99.90;;;;;;5025169;28;20203;-72
2022/05/15 07:45:14;;;;;;;4.30;3.87;;;19.40;99.90;;;;;;5025757;28;20422;-73
2022/05/15 07:47:40;;;;;;;5.03;3.87;;;19.40;99.90;;;;;;5007517;28;20201;-72
2022/05/15 07:50:07;;;;;;;4.60;3.80;;;19.40;99.90;;;;;;5025669;28;20406;-74
2022/05/15 07:52:33;;;;;;;4.60;3.10;;;19.40;99.90;;;;;;5025452;28;20488;-72
2022/05/15 07:54:59;;;;;;;3.50;3.20;;;19.50;99.90;;;;;;5007714;28;20453;-73
2022/05/15 07:57:25;;;;;;;5.60;3.60;;;19.70;99.90;;;;;;5024912;28;20457;-72
2022/05/15 07:59:50;;;;;;;3.13;2.83;;;19.70;99.90;;;;;;5007858;28;20187;-72
2022/05/15 08:02:17;;;;;;;3.67;3.07;;;20.00;99.90;;;;;;5024873;28;20214;-74
2022/05/15 08:10:12;;;;;;;2.73;2.53;;;20.30;99.40;;;;;;5025591;28;20882;-73
2022/05/15 08:12:38;;;;;;;4.20;3.03;;;20.30;99.20;;;;;;5023999;28;20454;-73
2022/05/15 08:15:06;;;;;;;2.70;2.40;;;20.30;99.30;;;;;;5025529;28;20843;-73
2022/05/15 08:17:32;;;;;;;3.20;2.60;;;20.40;99.00;;;;;;5025291;28;20418;-73
2022/05/15 08:25:26;;;;;;;3.37;2.27;;;20.70;98.50;;;;;;5025172;28;20413;-72
2022/05/15 08:27:51;;;;;;;4.33;2.70;;;20.80;98.50;;;;;;5024724;28;20418;-73
2022/05/15 08:30:17;;;;;;;3.30;2.50;;;20.90;98.60;;;;;;5007594;28;20229;-73
2022/05/15 08:32:44;;;;;;;2.80;2.53;;;21.00;98.10;;;;;;5024939;28;20210;-72
2022/05/15 08:35:09;;;;;;;3.90;2.23;;;21.20;98.70;;;;;;5024434;28;20493;-73
2022/05/15 08:37:36;;;;;;;2.90;2.53;;;21.30;97.90;;;;;;5024843;28;20990;-72
2022/05/15 08:40:03;;;;;;;5.03;2.73;;;21.40;97.40;;;;;;5024211;28;20422;-73
2022/05/15 08:42:48;;;;;;;4.20;2.77;;;21.30;97.50;;;;;;5024792;28;20457;-73
2022/05/15 08:45:16;;;;;;;3.30;2.50;;;21.50;97.50;;;;;;5025101;28;20406;-73
2022/05/15 08:47:46;;;;;;;4.10;3.50;;;21.70;97.70;;;;;;5025005;28;20414;-72
2022/05/15 08:50:16;;;;;;;2.60;2.40;;;21.80;97.00;;;;;;5024620;28;20516;-73
2022/05/15 08:53:02;;;;;;;3.13;2.10;;;21.90;97.30;;;;;;5007059;28;20429;-73
2022/05/15 08:55:40;;;;;;;2.63;2.17;;;22.00;96.40;;;;;;5024334;28;20464;-72
2022/05/15 08:58:11;;;;;;;6.33;2.97;;;22.00;96.70;;;;;;5026879;28;20394;-72
2022/05/15 09:01:00;;;;;;;3.80;2.60;;;22.20;96.40;;;;;;5034186;28;20434;-73
2022/05/15 09:03:35;;;;;;;4.40;2.50;;;22.30;97.20;;;;;;5027158;28;20430;-73
2022/05/15 09:06:23;;;;;;;3.70;2.63;;;22.50;96.40;;;;;;5023555;28;20425;-72
2022/05/15 09:09:13;;;;;;;2.80;2.40;;;22.50;96.10;;;;;;5024328;28;21253;-72
2022/05/15 09:11:58;;;;;;;5.27;3.13;;;22.80;96.00;;;;;;5024284;28;20429;-73
2022/05/15 09:14:54;;;;;;;3.20;2.90;;;22.90;95.40;;;;;;5024065;28;20428;-73
2022/05/15 09:17:30;;;;;;;3.20;2.30;;;22.90;95.60;;;;;;5024450;28;20500;-73
2022/05/15 09:20:00;;;;;;;6.90;2.93;;;22.80;95.10;;;;;;5023831;28;20471;-73
2022/05/15 09:22:33;;;;;;;4.60;3.00;;;22.80;95.50;;;;;;5050730;22;20473;-71
2022/05/15 09:25:05;;;;;;;2.90;2.30;;;23.00;95.00;;;;;;5025354;28;20561;-73
2022/05/15 09:27:31;;;;;;;4.33;2.73;;;23.00;94.80;;;;;;5033334;28;20477;-72
2022/05/15 09:30:07;;;;;;;4.47;2.40;;;23.00;95.20;;;;;;5033312;28;20422;-72
2022/05/15 09:32:44;;;;;;;5.90;2.70;;;23.20;94.30;;;;;;5055281;28;20174;-73
2022/05/15 09:35:13;;;;;;;5.37;2.60;;;23.50;94.10;;;;;;5063102;28;20489;-72
2022/05/15 09:43:30;;;;;;;3.60;2.30;;;23.80;92.90;;;;;;5056769;28;20391;-71
2022/05/15 09:43:33;;;;;;;5.10;2.20;;;23.90;93.50;;;;;;5054276;28;20939;-73
2022/05/15 09:46:11;;;;;;;5.43;2.17;;;24.00;92.20;;;;;;5052256;28;20448;-72
2022/05/15 09:48:41;;;;;;;2.87;2.27;;;24.00;91.80;;;;;;5054005;28;20408;-72
2022/05/15 09:51:12;;;;;;;3.10;2.70;;;24.10;91.50;;;;;;5042549;28;20482;-72
2022/05/15 09:53:40;;;;;;;2.40;2.00;;;24.30;91.70;;;;;;5042489;28;20491;-72
2022/05/15 09:56:09;;;;;;;3.27;2.13;;;24.50;91.70;;;;;;5051859;28;20524;-71
2022/05/15 09:58:45;;;;;;;5.87;2.33;;;24.60;91.40;;;;;;5052192;28;20448;-72
2022/05/15 10:01:35;;;;;;;5.10;2.40;;;24.60;90.70;;;;;;5060293;28;20436;-72
2022/05/15 10:04:04;;;;;;;4.27;2.57;;;24.80;91.00;;;;;;5046595;28;20859;-72
2022/05/15 10:06:33;;;;;;;4.30;2.30;;;24.80;91.10;;;;;;5055220;28;20985;-72
2022/05/15 10:09:10;;;;;;;3.70;2.17;;;24.80;90.10;;;;;;5056595;28;20447;-70
2022/05/15 10:11:42;;;;;;;3.00;2.30;;;24.90;89.80;;;;;;5051245;28;20549;-72
2022/05/15 10:14:19;;;;;;;2.53;2.07;;;24.60;89.50;;;;;;5056216;28;20436;-72
2022/05/15 10:16:49;;;;;;;4.13;1.93;;;24.80;90.00;;;;;;5047426;28;20768;-72
2022/05/15 10:19:45;;;;;;;5.90;2.40;;;24.90;89.70;;;;;;5051443;28;20843;-71
2022/05/15 10:22:37;;;;;;;6.70;2.73;;;24.80;88.00;;;;;;5049151;28;20567;-71
2022/05/15 10:25:22;;;;;;;2.87;2.40;;;24.90;90.70;;;;;;5053431;28;20439;-70
2022/05/15 10:28:00;;;;;;;4.40;2.53;;;25.30;89.40;;;;;;5055477;28;20510;-70
2022/05/15 10:30:39;;;;;;;3.10;2.30;;;25.40;86.20;;;;;;5055232;28;20784;-72
2022/05/15 10:33:10;;;;;;;2.73;1.70;;;25.40;86.00;;;;;;5051071;28;20446;-72
2022/05/15 10:35:48;;;;;;;3.13;2.17;;;25.40;88.70;;;;;;5055088;28;20423;-70
2022/05/15 10:38:41;;;;;;;4.40;2.60;;;25.40;85.00;;;;;;5054780;28;20422;-72
2022/05/15 10:41:26;;;;;;;4.97;1.93;;;25.30;84.00;;;;;;5049125;28;20544;-71
2022/05/15 10:44:00;;;;;;;3.80;2.03;;;25.40;82.60;;;;;;5058464;28;20428;-72
2022/05/15 10:46:39;;;;;;;6.23;2.23;;;25.30;83.10;;;;;;5044806;28;20417;-72
2022/05/15 10:49:23;;;;;;;3.63;2.10;;;25.40;82.10;;;;;;5058645;28;20412;-71
2022/05/15 10:52:10;;;;;;;3.03;2.20;;;25.40;84.00;;;;;;5054258;28;20419;-71
2022/05/15 10:58:27;;;;;;;6.50;2.03;;;25.70;79.00;;;;;;5060644;28;20431;-72
2022/05/15 11:00:55;;;;;;;2.60;1.97;;;25.80;78.80;;;;;;5053285;28;20805;-71
2022/05/15 11:03:49;;;;;;;2.30;1.90;;;25.90;80.20;;;;;;5063421;28;20428;-72
2022/05/15 11:07:03;;;;;;;2.63;2.40;;;26.10;79.10;;;;;;5055063;28;20934;-70
2022/05/15 11:09:45;;;;;;;2.17;1.70;;;26.40;75.60;;;;;;5032347;28;20421;-71
2022/05/15 11:12:35;;;;;;;5.73;2.87;;;26.60;78.30;;;;;;5027247;28;20637;-71
2022/05/15 11:15:21;;;;;;;3.23;2.07;;;26.60;75.10;;;;;;5049140;28;20508;-70
2022/05/15 11:18:16;;;;;;;4.60;2.40;;;26.60;74.60;;;;;;5056782;28;20934;-74
2022/05/15 11:20:49;;;;;;;2.03;1.83;;;27.30;75.40;;;;;;5054046;28;20461;-73
2022/05/15 11:23:29;;;;;;;2.07;1.87;;;28.30;71.70;;;;;;5051425;28;20463;-73
2022/05/15 11:26:03;;;;;;;2.60;1.50;;;30.20;64.70;;;;;;5052387;28;20404;-72
2022/05/15 11:28:40;;;;;;;4.67;2.43;;;31.10;60.60;;;;;;5058651;28;20988;-72
2022/05/15 11:31:11;;;;;;;2.67;1.70;;;32.30;56.60;;;;;;5050449;28;20935;-70
2022/05/15 11:33:58;;;;;;;3.40;1.87;;;33.10;55.00;;;;;;5059978;28;20436;-72
2022/05/15 11:36:24;;;;;;;3.40;1.80;;;33.70;53.20;;;;;;5046041;28;20535;-71
2022/05/15 11:38:52;;;;;;;5.97;2.07;;;33.30;50.30;;;;;;5050726;28;20510;-73
2022/05/15 11:41:36;;;;;;;2.20;2.00;;;32.70;50.60;;;;;;5065289;28;20815;-72
2022/05/15 11:44:09;;;;;;;2.43;1.53;;;33.00;50.40;;;;;;5066172;28;20446;-72
2022/05/15 11:46:55;;;;;;;2.73;2.20;;;34.70;51.20;;;;;;5059020;28;20413;-71
2022/05/15 11:49:40;;;;;;;3.30;1.90;;;34.60;48.30;;;;;;5045629;28;20432;-71
2022/05/15 11:52:06;;;;;;;2.33;1.80;;;34.10;46.80;;;;;;5051103;28;20465;-74
2022/05/15 11:54:41;;;;;;;2.97;2.10;;;34.30;48.40;;;;;;5058610;28;20914;-70
2022/05/15 11:57:10;;;;;;;5.23;2.30;;;34.20;46.30;;;;;;5060847;28;20693;-73
2022/05/15 11:59:46;;;;;;;2.87;2.03;;;34.10;46.60;;;;;;5050546;28;20421;-72
2022/05/15 12:02:20;;;;;;;3.73;2.07;;;32.70;46.90;;;;;;5064965;28;20451;-72
2022/05/15 12:04:46;;;;;;;3.50;2.40;;;33.00;48.50;;;;;;5056213;28;20470;-72
2022/05/15 12:07:14;;;;;;;2.73;2.10;;;34.10;47.60;;;;;;5048789;28;20449;-72
2022/05/15 12:09:40;;;;;;;3.90;2.13;;;33.80;45.50;;;;;;5054748;28;20560;-73
2022/05/15 12:12:32;;;;;;;4.30;2.13;;;33.60;45.50;;;;;;5049843;28;20424;-73
2022/05/15 12:15:23;;;;;;;1.83;1.70;;;33.80;44.70;;;;;;5058080;28;20280;-72
2022/05/15 12:17:59;;;;;;;2.77;1.90;;;33.90;45.40;;;;;;5080688;28;20464;-71
2022/05/15 12:20:28;;;;;;;3.00;1.70;;;35.00;43.40;;;;;;5065390;28;20468;-72
2022/05/15 12:22:58;;;;;;;2.80;1.93;;;34.50;44.20;;;;;;5065124;28;20521;-72
2022/05/15 12:25:30;;;;;;;3.90;1.80;;;34.50;43.10;;;;;;5065160;28;20488;-72
2022/05/15 12:31:17;;;;;;;3.17;1.97;;;34.90;43.20;;;;;;5065389;28;20438;-72
2022/05/15 12:33:44;;;;;;;2.13;1.40;;;36.10;42.90;;;;;;5063553;28;20428;-75
2022/05/15 12:36:19;;;;;;;4.17;1.60;;;36.50;41.60;;;;;;5045624;28;20428;-73
2022/05/15 12:38:54;;;;;;;4.27;2.10;;;35.90;41.20;;;;;;5044953;28;20412;-70
2022/05/15 12:41:32;;;;;;;3.33;1.70;;;35.50;42.60;;;;;;5044518;28;20547;-73
2022/05/15 12:44:00;;;;;;;2.33;1.63;;;35.40;41.80;;;;;;5044847;28;21063;-72
2022/05/15 12:46:42;;;;;;;3.17;1.50;;;36.00;40.80;;;;;;5044633;28;20445;-72
2022/05/15 12:49:08;;;;;;;2.17;1.70;;;35.40;41.60;;;;;;5044723;28;20417;-72
2022/05/15 12:51:40;;;;;;;3.60;1.80;;;34.30;42.10;;;;;;5044253;28;20862;-73
2022/05/15 12:54:28;;;;;;;3.23;1.73;;;33.70;42.90;;;;;;5044501;28;20459;-72
2022/05/15 12:57:00;;;;;;;3.03;2.03;;;34.60;42.90;;;;;;5063693;28;21019;-71
2022/05/15 12:59:28;;;;;;;2.17;1.50;;;35.70;40.20;;;;;;5070150;28;20766;-74
2022/05/15 13:01:54;;;;;;;2.77;2.03;;;35.30;41.20;;;;;;5045112;28;20457;-71
2022/05/15 13:04:24;;;;;;;2.93;1.90;;;35.50;41.40;;;;;;5045220;28;20469;-74
2022/05/15 13:06:55;;;;;;;3.03;1.87;;;36.70;39.80;;;;;;5044815;28;20925;-75
2022/05/15 13:09:27;;;;;;;2.00;1.80;;;36.00;42.80;;;;;;5043815;28;20431;-74
2022/05/15 13:11:56;;;;;;;3.13;2.00;;;35.50;40.30;;;;;;5044754;28;20494;-74
2022/05/15 13:14:27;;;;;;;2.83;1.83;;;35.30;42.30;;;;;;5064254;28;20998;-73
2022/05/15 13:16:53;;;;;;;1.63;1.50;;;35.30;40.30;;;;;;5061307;28;20992;-74
2022/05/15 13:19:26;;;;;;;3.23;1.63;;;35.70;41.10;;;;;;5059517;28;20412;-73
2022/05/15 13:21:53;;;;;;;1.70;1.40;;;36.30;39.00;;;;;;5052845;28;20453;-73
2022/05/15 13:24:20;;;;;;;2.90;1.63;;;35.70;39.50;;;;;;5044885;28;21276;-73
2022/05/15 13:26:49;;;;;;;2.70;1.70;;;35.80;39.00;;;;;;5049641;28;20422;-74
2022/05/15 13:29:19;;;;;;;3.03;1.80;;;37.10;38.10;;;;;;5045378;28;20428;-73
2022/05/15 13:31:49;;;;;;;3.10;1.80;;;38.40;36.50;;;;;;5052280;28;20429;-72